DEKT2: Red River, Dekalb, TX

Data processed at Mon Jan 21 2019 23:32


All information presented herein is the property of the government of the United States of America and may be revised or deleted at any time without prior notice.
Dissemination of this information without the expressed written consent of the Public Affairs Office, Tulsa District U.S. Army Corps of Engineers is strictly prohibited.
These data are gathered electronically and, as presented, have not undergone any form of quality control. These data are not guaranteed to be valid or correct.
Go to home page.
Go to station list.
Go to home page.

Upstream stations:

Downstream station:
Previous Day
Next Day
Current Day
    
SHEF ID:       DEKT2     Red River near De Kalb, TX
STATION TYPE:  

               PRECIP     STAGE  STAGE(2)  RIV-FLOW  BAT-LOAD
                   in        ft        ft       cfs      volt
              Ccp-Rev   Ccp-Rev   Ccp-Rev   Ccp-Rev   Ccp-Rev
(US/Central)
01/21 00:00      ----     19.22      ----     33562     12.89
01/21 01:00      ----     19.23      ----     33614     12.89
01/21 02:00      ----     19.21      ----     33510     12.81
01/21 03:00      ----     19.20      ----     33458     12.81
01/21 04:00      ----     19.18      ----     33353     12.81
01/21 05:00      ----     19.14      ----     33145     12.81
01/21 06:00      ----     19.13      ----     33094     12.81
01/21 07:00      ----     19.14      ----     33145     12.81
01/21 08:00      ----     19.11      ----     32990     12.73
01/21 09:00      ----     19.08      ----     32835     13.44
01/21 10:00      ----     19.06      ----     32731     13.44
01/21 11:00      ----     19.06      ----     32731     13.44
01/21 12:00      ----     19.06      ----     32731     13.44
01/21 13:00      ----     19.09      ----     32886     13.44
01/21 14:00      ----     19.05      ----     32680     13.44
01/21 15:00      ----     19.06      ----     32731     13.37
01/21 16:00      ----     19.05      ----     32680     13.29
01/21 17:00      ----     19.07      ----     32783     13.21
01/21 18:00      ----     19.07      ----     32783     13.13
01/21 19:00      ----     19.05      ----     32680     13.05
01/21 20:00      ----     19.04      ----     32628     13.05
01/21 21:00      ----     19.01      ----     32474     13.05
01/21 22:00      ----     19.02      ----     32525     12.97
01/21 23:00      ----     19.01      ----     32474     12.97